createdAt,value
2022-10-11T00:00:41.254Z,8.88
2022-10-11T00:03:08.156Z,9.43
2022-10-11T00:05:35.388Z,9.15
2022-10-11T00:08:02.309Z,9.52
2022-10-11T00:10:29.211Z,9.58
2022-10-11T00:12:56.106Z,9.08
2022-10-11T00:15:23.249Z,9.57
2022-10-11T00:17:52.792Z,9.44
2022-10-11T00:20:19.740Z,9.32
2022-10-11T00:22:47.778Z,9.46
2022-10-11T00:25:14.705Z,9.45
2022-10-11T00:27:41.586Z,9.30
2022-10-11T00:30:09.505Z,9.33
2022-10-11T00:32:37.300Z,8.05
2022-10-11T00:35:06.499Z,9.28
2022-10-11T00:37:37.664Z,9.04
2022-10-11T00:40:07.253Z,9.42
2022-10-11T00:42:34.122Z,9.25
2022-10-11T00:45:31.883Z,9.37
2022-10-11T00:48:21.479Z,9.33
2022-10-11T00:50:48.354Z,9.17
2022-10-11T00:53:15.443Z,9.31
2022-10-11T00:55:47.433Z,7.86
2022-10-11T00:58:14.296Z,9.19
2022-10-11T01:00:41.205Z,9.14
2022-10-11T01:03:10.173Z,9.16
2022-10-11T01:05:38.139Z,8.93
2022-10-11T01:08:05.060Z,8.62
2022-10-11T01:10:32.060Z,8.93
2022-10-11T01:13:27.480Z,9.24
2022-10-11T01:16:12.345Z,9.22
2022-10-11T01:18:52.500Z,9.21
2022-10-11T01:21:34.295Z,8.94
2022-10-11T01:24:23.484Z,8.91
2022-10-11T01:27:34.622Z,9.02
2022-10-11T01:30:36.631Z,9.00
2022-10-11T01:33:21.316Z,7.84
2022-10-11T01:36:27.736Z,9.08
2022-10-11T01:39:03.631Z,8.81
2022-10-11T01:41:47.669Z,6.78
2022-10-11T01:44:14.555Z,8.74
2022-10-11T01:46:41.716Z,8.93
2022-10-11T01:49:08.947Z,9.00
2022-10-11T01:51:53.211Z,8.90
2022-10-11T01:55:08.144Z,8.98
2022-10-11T01:58:05.782Z,8.65
2022-10-11T02:00:47.858Z,8.42
2022-10-11T02:03:51.149Z,8.94
2022-10-11T02:06:24.059Z,8.34
2022-10-11T02:09:08.257Z,8.77
2022-10-11T02:11:35.715Z,8.02
2022-10-11T02:14:23.195Z,7.02
2022-10-11T02:16:53.672Z,8.81
2022-10-11T02:19:22.477Z,8.41
2022-10-11T02:21:52.914Z,8.92
2022-10-11T02:24:27.302Z,8.53
2022-10-11T02:26:54.767Z,8.82
2022-10-11T02:29:22.997Z,8.90
2022-10-11T02:31:52.803Z,8.70
2022-10-11T02:34:56.162Z,7.22
2022-10-11T02:37:40.636Z,8.26
2022-10-11T02:40:16.857Z,8.85
2022-10-11T02:42:53.294Z,8.72
2022-10-11T02:45:23.716Z,7.01
2022-10-11T02:47:53.325Z,8.72
2022-10-11T02:50:21.767Z,8.59
2022-10-11T02:52:51.158Z,8.70
2022-10-11T02:55:18.048Z,8.60
2022-10-11T02:57:44.961Z,8.37
2022-10-11T03:00:12.491Z,8.65
2022-10-11T03:02:39.347Z,8.65
2022-10-11T03:05:06.373Z,8.52
2022-10-11T03:07:33.481Z,8.59
2022-10-11T03:10:00.346Z,8.34
2022-10-11T03:12:27.237Z,8.29
2022-10-11T03:14:54.112Z,8.47
2022-10-11T03:17:37.292Z,8.69
2022-10-11T03:20:05.882Z,8.57
2022-10-11T03:22:32.796Z,8.62
2022-10-11T03:25:03.574Z,8.54
2022-10-11T03:27:31.489Z,8.33
2022-10-11T03:29:58.747Z,8.55
2022-10-11T03:32:25.622Z,8.24
2022-10-11T03:34:52.562Z,8.46
2022-10-11T03:37:21.992Z,8.59
2022-10-11T03:39:48.916Z,8.16
2022-10-11T03:42:15.833Z,8.31
2022-10-11T03:44:42.779Z,8.53
2022-10-11T03:47:09.800Z,8.52
2022-10-11T03:49:39.983Z,8.16
2022-10-11T03:52:10.326Z,8.05
2022-10-11T03:54:37.215Z,8.48
2022-10-11T03:57:04.239Z,8.40
2022-10-11T03:59:31.129Z,8.46
2022-10-11T04:01:58.013Z,8.05
2022-10-11T04:04:25.015Z,8.00
2022-10-11T04:06:51.903Z,8.33
2022-10-11T04:09:18.803Z,8.24
2022-10-11T04:11:45.669Z,7.76
2022-10-11T04:14:12.548Z,8.23
2022-10-11T04:16:40.210Z,8.11
2022-10-11T04:19:07.152Z,8.42
2022-10-11T04:21:34.077Z,8.33
2022-10-11T04:24:00.945Z,8.24
2022-10-11T04:26:27.827Z,8.30
2022-10-11T04:28:54.789Z,8.41
2022-10-11T04:31:21.717Z,8.04
2022-10-11T04:33:50.849Z,7.83
2022-10-11T04:36:24.005Z,8.22
2022-10-11T04:38:56.250Z,8.29
2022-10-11T04:41:23.179Z,8.36
2022-10-11T04:43:52.610Z,8.29
2022-10-11T04:46:22.573Z,8.12
2022-10-11T04:48:54.591Z,8.23
2022-10-11T04:51:21.848Z,8.11
2022-10-11T04:53:49.517Z,6.91
2022-10-11T04:56:18.445Z,8.16
2022-10-11T04:58:47.936Z,8.25
2022-10-11T05:01:23.150Z,7.84
2022-10-11T05:03:53.051Z,8.22
2022-10-11T05:06:22.612Z,8.21
2022-10-11T05:08:52.172Z,7.83
2022-10-11T05:11:20.547Z,7.69
2022-10-11T05:13:47.610Z,7.98
2022-10-11T05:16:15.024Z,7.95
2022-10-11T05:18:42.443Z,7.84
2022-10-11T05:21:23.635Z,7.97
2022-10-11T05:23:51.203Z,8.18
2022-10-11T05:26:21.129Z,8.08
2022-10-11T05:28:53.429Z,7.99
2022-10-11T05:31:22.689Z,8.12
2022-10-11T05:33:52.433Z,7.72
2022-10-11T05:36:21.895Z,7.73
2022-10-11T05:38:48.856Z,7.06
2022-10-11T05:41:16.099Z,7.94
2022-10-11T05:43:44.569Z,8.09
2022-10-11T05:46:12.263Z,8.11
2022-10-11T05:48:39.613Z,7.75
2022-10-11T05:51:07.739Z,8.06
2022-10-11T05:53:34.748Z,8.08
2022-10-11T05:56:02.035Z,8.12
2022-10-11T05:58:29.147Z,7.94
2022-10-11T06:00:57.138Z,8.09
2022-10-11T06:03:25.419Z,8.07
2022-10-11T06:05:56.746Z,8.08
2022-10-11T06:08:24.240Z,7.98
2022-10-11T06:10:51.156Z,8.11
2022-10-11T06:13:20.056Z,7.96
2022-10-11T06:15:46.963Z,8.05
2022-10-11T06:18:14.430Z,8.14
2022-10-11T06:20:41.576Z,8.10
2022-10-11T06:23:08.663Z,8.18
2022-10-11T06:25:35.571Z,8.15
2022-10-11T06:28:03.187Z,8.14
2022-10-11T06:30:30.248Z,7.90
2022-10-11T06:33:00.039Z,8.10
2022-10-11T06:35:30.992Z,8.04
2022-10-11T06:37:57.927Z,8.27
2022-10-11T06:40:24.901Z,8.14
2022-10-11T06:42:52.042Z,8.19
2022-10-11T06:45:18.939Z,8.26
2022-10-11T06:47:46.003Z,7.97
2022-10-11T06:50:13.821Z,8.29
2022-10-11T06:52:40.887Z,8.24
2022-10-11T06:55:08.117Z,8.39
2022-10-11T06:57:35.123Z,8.38
2022-10-11T07:00:02.085Z,8.41
2022-10-11T07:02:28.989Z,8.04
2022-10-11T07:04:55.971Z,8.39
2022-10-11T07:07:22.923Z,8.24
2022-10-11T07:09:52.343Z,8.35
2022-10-11T07:12:21.865Z,8.27
2022-10-11T07:14:51.479Z,8.46
2022-10-11T07:17:19.819Z,8.47
2022-10-11T07:19:49.885Z,6.84
2022-10-11T07:22:16.933Z,8.43
2022-10-11T07:24:43.890Z,8.58
2022-10-11T07:27:10.828Z,8.58
2022-10-11T07:29:37.726Z,8.53
2022-10-11T07:32:04.748Z,8.56
2022-10-11T07:34:31.621Z,7.41
2022-10-11T07:36:58.547Z,8.41
2022-10-11T07:39:25.427Z,7.63
2022-10-11T07:41:52.324Z,8.71
2022-10-11T07:44:22.094Z,8.68
2022-10-11T07:46:48.957Z,8.67
2022-10-11T07:49:15.852Z,7.17
2022-10-11T07:51:42.713Z,8.85
2022-10-11T07:54:09.594Z,8.90
2022-10-11T07:56:37.615Z,8.88
2022-10-11T07:59:29.483Z,8.83
2022-10-11T08:01:56.429Z,9.07
2022-10-11T08:04:23.409Z,8.10
2022-10-11T08:06:53.622Z,9.14
2022-10-11T08:09:23.617Z,9.23
2022-10-11T08:11:53.125Z,9.18
2022-10-11T08:14:22.937Z,8.86
2022-10-11T08:16:52.031Z,9.19
2022-10-11T08:19:19.007Z,9.36
2022-10-11T08:21:45.887Z,9.36
2022-10-11T08:24:18.799Z,9.49
2022-10-11T08:26:45.686Z,9.41
2022-10-11T08:29:13.342Z,9.64
2022-10-11T08:31:40.360Z,8.96
2022-10-11T08:34:07.243Z,9.53
2022-10-11T08:36:34.207Z,9.82
2022-10-11T08:39:01.201Z,9.95
2022-10-11T08:42:17.490Z,10.18
2022-10-11T08:45:09.992Z,9.23
2022-10-11T08:47:41.270Z,10.17
2022-10-11T08:50:16.758Z,10.75
2022-10-11T08:52:48.978Z,10.51
2022-10-11T08:55:33.725Z,10.50
2022-10-11T08:58:01.367Z,11.34
2022-10-11T09:00:31.097Z,11.71
2022-10-11T09:03:22.107Z,11.95
2022-10-11T09:06:04.305Z,12.16
2022-10-11T09:08:43.433Z,12.02
2022-10-11T09:11:31.532Z,12.44
2022-10-11T09:14:22.502Z,12.36
2022-10-11T09:17:14.636Z,11.19
2022-10-11T09:20:24.552Z,12.66
2022-10-11T09:23:04.157Z,12.76
2022-10-11T09:25:35.672Z,10.39
2022-10-11T09:28:13.464Z,12.94
2022-10-11T09:30:45.148Z,13.03
2022-10-11T09:33:23.447Z,12.71
2022-10-11T09:35:52.327Z,13.00
2022-10-11T09:38:24.888Z,13.08
2022-10-11T09:41:20.921Z,13.25
2022-10-11T09:43:53.980Z,13.23
2022-10-11T09:46:27.747Z,12.97
2022-10-11T09:48:54.688Z,13.14
2022-10-11T09:51:23.401Z,13.20
2022-10-11T09:54:02.167Z,13.19
2022-10-11T09:56:30.962Z,13.00
2022-10-11T09:59:32.380Z,13.37
2022-10-11T10:02:14.624Z,13.34
2022-10-11T10:04:53.459Z,13.35
2022-10-11T10:07:23.350Z,13.21
2022-10-11T10:09:53.312Z,13.26
2022-10-11T10:12:24.960Z,12.23
2022-10-11T10:15:08.565Z,13.43
2022-10-11T10:17:35.930Z,13.16
2022-10-11T10:20:05.653Z,13.43
2022-10-11T10:22:34.339Z,13.54
2022-10-11T10:25:08.102Z,13.66
2022-10-11T10:27:35.039Z,13.72
2022-10-11T10:30:13.353Z,13.86
2022-10-11T10:32:56.330Z,13.93
2022-10-11T10:35:27.597Z,12.65
2022-10-11T10:38:00.569Z,14.05
2022-10-11T10:40:37.992Z,10.18
2022-10-11T10:43:04.864Z,14.06
2022-10-11T10:45:58.193Z,14.13
2022-10-11T10:51:53.029Z,14.30
2022-10-11T10:54:28.392Z,14.25
2022-10-11T10:57:03.762Z,13.50
2022-10-11T10:59:39.560Z,14.42
2022-10-11T11:02:39.032Z,14.39
2022-10-11T11:05:04.969Z,13.92
2022-10-11T11:07:42.143Z,14.22
2022-10-11T11:10:13.628Z,14.33
2022-10-11T11:13:19.097Z,13.11
2022-10-11T11:15:52.322Z,14.35
2022-10-11T11:18:31.669Z,14.38
2022-10-11T11:21:41.402Z,14.12
2022-10-11T11:24:22.921Z,14.29
2022-10-11T11:26:59.160Z,14.04
2022-10-11T11:29:43.623Z,14.33
2022-10-11T11:32:30.111Z,14.17
2022-10-11T11:35:26.693Z,14.49
2022-10-11T11:38:01.297Z,14.51
2022-10-11T11:40:39.680Z,14.55
2022-10-11T11:43:21.331Z,13.86
2022-10-11T11:45:57.894Z,14.03
2022-10-11T11:48:26.544Z,14.27
2022-10-11T11:51:11.637Z,14.61
2022-10-11T11:54:09.356Z,14.54
2022-10-11T11:56:51.024Z,14.61
2022-10-11T11:59:28.821Z,14.73
2022-10-11T12:02:29.027Z,14.69
2022-10-11T12:04:56.320Z,14.93
2022-10-11T12:07:24.319Z,14.78
2022-10-11T12:10:14.681Z,13.50
2022-10-11T12:12:41.571Z,14.92
2022-10-11T12:15:08.283Z,15.14
2022-10-11T12:17:54.191Z,15.05
2022-10-11T12:20:23.927Z,15.10
2022-10-11T12:22:53.377Z,15.08
2022-10-11T12:25:22.837Z,15.09
2022-10-11T12:27:57.029Z,14.37
2022-10-11T12:30:42.623Z,15.14
2022-10-11T12:33:21.898Z,10.46
2022-10-11T12:35:54.973Z,15.23
2022-10-11T12:38:30.740Z,15.28
2022-10-11T12:41:09.411Z,15.31
2022-10-11T12:44:14.927Z,15.33
2022-10-11T12:46:57.919Z,15.30
2022-10-11T12:49:36.511Z,15.38
2022-10-11T12:52:22.044Z,15.39
2022-10-11T12:55:10.560Z,15.39
2022-10-11T12:58:08.785Z,15.38
2022-10-11T13:00:57.026Z,15.33
2022-10-11T13:03:33.449Z,15.24
2022-10-11T13:06:01.974Z,15.25
2022-10-11T13:08:36.847Z,15.07
2022-10-11T13:11:05.839Z,13.92
2022-10-11T13:13:35.204Z,13.69
2022-10-11T13:16:15.053Z,15.04
2022-10-11T13:18:44.097Z,15.10
2022-10-11T13:21:29.932Z,14.49
2022-10-11T13:24:01.856Z,14.50
2022-10-11T13:26:30.119Z,14.86
2022-10-11T13:28:57.494Z,14.89
2022-10-11T13:31:25.331Z,14.65
2022-10-11T13:33:56.305Z,14.58
2022-10-11T13:36:25.662Z,14.82
2022-10-11T13:39:00.294Z,14.89
2022-10-11T13:41:29.053Z,14.75
2022-10-11T13:43:57.173Z,14.94
2022-10-11T13:46:26.255Z,14.98
2022-10-11T13:49:06.864Z,14.84
2022-10-11T13:51:36.048Z,14.66
2022-10-11T13:54:05.721Z,14.89
2022-10-11T13:56:50.913Z,14.87
2022-10-11T13:59:25.468Z,14.66
2022-10-11T14:01:57.868Z,14.10
2022-10-11T14:04:29.496Z,14.95
2022-10-11T14:06:58.414Z,14.91
2022-10-11T14:09:36.456Z,15.14
2022-10-11T14:12:28.241Z,15.21
2022-10-11T14:14:55.133Z,14.95
2022-10-11T14:17:24.796Z,15.16
2022-10-11T14:20:12.015Z,15.14
2022-10-11T14:22:39.254Z,15.04
2022-10-11T14:25:06.353Z,15.14
2022-10-11T14:27:33.357Z,15.44
2022-10-11T14:30:23.979Z,15.37
2022-10-11T14:32:49.119Z,15.19
2022-10-11T14:35:28.071Z,15.25
2022-10-11T14:37:55.210Z,15.37
2022-10-11T14:40:25.141Z,15.07
2022-10-11T14:42:52.215Z,15.27
2022-10-11T14:45:21.150Z,15.39
2022-10-11T14:47:53.594Z,15.13
2022-10-11T14:50:41.362Z,14.10
2022-10-11T14:53:09.284Z,15.31
2022-10-11T14:55:37.048Z,15.45
2022-10-11T14:58:04.859Z,15.13
2022-10-11T15:00:32.365Z,15.42
2022-10-11T15:02:59.294Z,15.47
2022-10-11T15:05:33.503Z,15.49
2022-10-11T15:08:01.769Z,15.51
2022-10-11T15:10:33.057Z,14.40
2022-10-11T15:13:00.487Z,15.56
2022-10-11T15:15:30.432Z,15.68
2022-10-11T15:17:58.909Z,15.17
2022-10-11T15:20:31.871Z,15.72
2022-10-11T15:22:59.451Z,15.76
2022-10-11T15:25:27.095Z,15.59
2022-10-11T15:27:54.022Z,15.73
2022-10-11T15:30:26.890Z,15.31
2022-10-11T15:32:54.759Z,15.72
2022-10-11T15:35:23.025Z,15.67
2022-10-11T15:37:54.344Z,15.30
2022-10-11T15:40:25.184Z,11.95
2022-10-11T15:42:54.131Z,15.57
2022-10-11T15:45:21.677Z,15.10
2022-10-11T15:47:51.819Z,15.17
2022-10-11T15:50:39.660Z,14.56
2022-10-11T15:53:09.148Z,15.37
2022-10-11T15:55:38.576Z,15.29
2022-10-11T15:58:05.959Z,15.18
2022-10-11T16:00:32.834Z,15.22
2022-10-11T16:02:59.991Z,15.15
2022-10-11T16:05:27.476Z,15.09
2022-10-11T16:07:54.454Z,15.05
2022-10-11T16:10:21.534Z,14.89
2022-10-11T16:12:48.852Z,15.14
2022-10-11T16:15:17.288Z,14.99
2022-10-11T16:17:45.306Z,14.98
2022-10-11T16:20:12.292Z,14.59
2022-10-11T16:22:39.177Z,14.77
2022-10-11T16:25:06.208Z,14.70
2022-10-11T16:27:33.412Z,14.73
2022-10-11T16:30:01.270Z,14.65
2022-10-11T16:32:28.345Z,14.73
2022-10-11T16:34:55.220Z,14.51
2022-10-11T16:37:22.102Z,14.51
2022-10-11T16:39:49.130Z,14.51
2022-10-11T16:42:20.517Z,14.54
2022-10-11T16:44:47.600Z,14.50
2022-10-11T16:47:15.852Z,14.09
2022-10-11T16:49:42.731Z,14.16
2022-10-11T16:52:11.045Z,14.24
2022-10-11T16:54:38.352Z,14.13
2022-10-11T16:57:05.263Z,14.13
2022-10-11T16:59:32.157Z,13.90
2022-10-11T17:01:59.156Z,13.29
2022-10-11T17:04:26.049Z,13.89
2022-10-11T17:06:55.070Z,13.81
2022-10-11T17:09:22.157Z,13.71
2022-10-11T17:11:49.052Z,13.68
2022-10-11T17:14:15.943Z,13.70
2022-10-11T17:16:43.219Z,13.53
2022-10-11T17:19:15.514Z,13.49
2022-10-11T17:21:42.505Z,13.26
2022-10-11T17:24:09.470Z,13.48
2022-10-11T17:26:36.346Z,13.45
2022-10-11T17:29:03.294Z,13.10
2022-10-11T17:31:30.396Z,13.34
2022-10-11T17:34:00.692Z,13.40
2022-10-11T17:36:34.433Z,13.23
2022-10-11T17:39:03.595Z,13.16
2022-10-11T17:41:32.270Z,13.13
2022-10-11T17:43:59.758Z,12.20
2022-10-11T17:46:28.163Z,11.95
2022-10-11T17:48:55.702Z,12.98
2022-10-11T17:51:22.644Z,12.93
2022-10-11T17:53:52.377Z,12.68
2022-10-11T17:56:29.486Z,12.42
2022-10-11T17:58:57.890Z,11.82
2022-10-11T18:01:26.614Z,12.55
2022-10-11T18:03:57.744Z,12.70
2022-10-11T18:06:26.719Z,11.44
2022-10-11T18:08:53.670Z,12.67
2022-10-11T18:11:23.635Z,12.49
2022-10-11T18:13:52.506Z,12.55
2022-10-11T18:16:27.055Z,12.41
2022-10-11T18:18:54.795Z,12.43
2022-10-11T18:21:21.728Z,12.51
2022-10-11T18:23:48.682Z,12.43
2022-10-11T18:26:26.701Z,12.39
2022-10-11T18:28:57.175Z,12.23
2022-10-11T18:31:26.329Z,12.38
2022-10-11T18:33:53.844Z,12.26
2022-10-11T18:36:25.435Z,12.02
2022-10-11T18:38:57.492Z,12.22
2022-10-11T18:41:31.633Z,11.98
2022-10-11T18:44:02.757Z,12.11
2022-10-11T18:46:30.378Z,11.98
2022-10-11T18:48:59.768Z,11.61
2022-10-11T18:51:32.841Z,11.64
2022-10-11T18:54:00.506Z,10.20
2022-10-11T18:56:29.500Z,11.93
2022-10-11T18:58:58.244Z,11.78
2022-10-11T19:01:44.903Z,11.51
2022-10-11T19:04:16.010Z,11.82
2022-10-11T19:06:47.777Z,11.74
2022-10-11T19:09:25.793Z,11.74
2022-10-11T19:11:55.569Z,10.94
2022-10-11T19:14:31.552Z,11.40
2022-10-11T19:16:58.621Z,11.53
2022-10-11T19:19:28.977Z,11.53
2022-10-11T19:21:56.055Z,11.16
2022-10-11T19:24:26.629Z,10.42
2022-10-11T19:26:58.413Z,11.29
2022-10-11T19:29:28.947Z,11.59
2022-10-11T19:31:59.028Z,11.48
2022-10-11T19:34:27.741Z,11.49
2022-10-11T19:36:56.554Z,11.16
2022-10-11T19:39:24.679Z,11.39
2022-10-11T19:41:51.560Z,11.30
2022-10-11T19:44:20.896Z,11.29
2022-10-11T19:46:58.310Z,11.47
2022-10-11T19:49:27.279Z,11.45
2022-10-11T19:51:55.425Z,11.33
2022-10-11T19:54:22.731Z,11.25
2022-10-11T19:56:52.707Z,11.07
2022-10-11T19:59:23.293Z,10.62
2022-10-11T20:01:53.509Z,11.01
2022-10-11T20:04:51.079Z,10.15
2022-10-11T20:07:07.440Z,11.15
2022-10-11T20:09:34.382Z,10.80
2022-10-11T20:12:01.253Z,11.05
2022-10-11T20:14:28.132Z,11.00
2022-10-11T20:16:55.019Z,11.22
2022-10-11T20:19:25.047Z,11.14
2022-10-11T20:21:54.809Z,11.06
2022-10-11T20:24:21.728Z,10.98
2022-10-11T20:26:48.632Z,10.95
2022-10-11T20:29:15.498Z,9.93
2022-10-11T20:31:42.925Z,10.59
2022-10-11T20:34:10.056Z,10.73
2022-10-11T20:36:37.034Z,10.94
2022-10-11T20:39:04.809Z,10.67
2022-10-11T20:41:34.263Z,10.89
2022-10-11T20:44:03.680Z,10.99
2022-10-11T20:46:32.864Z,11.06
2022-10-11T20:49:07.833Z,10.98
2022-10-11T20:51:35.898Z,10.99
2022-10-11T20:54:04.244Z,11.08
2022-10-11T20:56:31.164Z,11.11
2022-10-11T20:58:58.339Z,10.93
2022-10-11T21:01:28.288Z,10.71
2022-10-11T21:03:57.297Z,11.01
2022-10-11T21:06:24.193Z,10.99
2022-10-11T21:08:59.035Z,10.96
2022-10-11T21:11:27.149Z,10.44
2022-10-11T21:13:57.917Z,10.02
2022-10-11T21:16:25.139Z,10.99
2022-10-11T21:18:53.435Z,10.96
2022-10-11T21:21:24.063Z,10.94
2022-10-11T21:23:58.344Z,10.58
2022-10-11T21:26:25.330Z,10.98
2022-10-11T21:28:52.350Z,10.93
2022-10-11T21:31:23.584Z,10.59
2022-10-11T21:33:53.238Z,10.52
2022-10-11T21:36:24.730Z,10.71
2022-10-11T21:38:51.931Z,10.88
2022-10-11T21:41:23.212Z,8.92
2022-10-11T21:43:53.416Z,10.37
2022-10-11T21:46:32.572Z,10.85
2022-10-11T21:49:08.860Z,9.49
2022-10-11T21:51:35.760Z,10.68
2022-10-11T21:54:02.721Z,10.63
2022-10-11T21:56:29.900Z,10.42
2022-10-11T21:58:56.960Z,10.51
2022-10-11T22:01:24.040Z,10.42
2022-10-11T22:03:52.605Z,10.41
2022-10-11T22:06:22.380Z,10.47
2022-10-11T22:08:50.114Z,10.30
2022-10-11T22:11:17.037Z,9.12
2022-10-11T22:13:43.917Z,10.29
2022-10-11T22:16:12.328Z,10.48
2022-10-11T22:18:39.463Z,10.48
2022-10-11T22:21:17.832Z,10.23
2022-10-11T22:23:46.584Z,9.48
2022-10-11T22:26:15.917Z,9.36
2022-10-11T22:28:43.019Z,10.07
2022-10-11T22:31:10.320Z,10.31
2022-10-11T22:33:37.362Z,10.10
2022-10-11T22:36:05.904Z,10.33
2022-10-11T22:38:32.830Z,9.32
2022-10-11T22:40:59.797Z,10.23
2022-10-11T22:43:26.676Z,9.24
2022-10-11T22:45:53.559Z,10.30
2022-10-11T22:48:23.189Z,10.33
2022-10-11T22:50:50.147Z,10.19
2022-10-11T22:53:17.761Z,10.36
2022-10-11T22:55:44.637Z,10.18
2022-10-11T22:58:14.199Z,9.23
2022-10-11T23:00:41.243Z,9.87
2022-10-11T23:03:08.206Z,10.37
2022-10-11T23:05:35.461Z,10.32
2022-10-11T23:08:02.345Z,10.15
2022-10-11T23:10:29.213Z,10.22
2022-10-11T23:12:56.104Z,9.05
2022-10-11T23:15:22.977Z,10.31
2022-10-11T23:17:52.849Z,10.37
2022-10-11T23:20:21.896Z,10.38
2022-10-11T23:22:48.803Z,9.87
2022-10-11T23:25:15.742Z,10.41
2022-10-11T23:27:42.628Z,9.61
2022-10-11T23:30:10.326Z,10.13
2022-10-11T23:32:37.206Z,10.13
2022-10-11T23:35:04.284Z,10.21
2022-10-11T23:37:31.160Z,10.04
2022-10-11T23:39:58.034Z,10.07
2022-10-11T23:42:24.923Z,10.05
2022-10-11T23:44:52.969Z,10.03
2022-10-11T23:47:22.564Z,9.85
2022-10-11T23:49:52.769Z,10.08
2022-10-11T23:52:22.409Z,9.86
2022-10-11T23:54:52.413Z,9.50
2022-10-11T23:57:21.892Z,9.91
2022-10-11T23:59:48.786Z,9.89
